Forest fire From: 22-07-2018 23:00 Until: 23-07-2018 22:59 warning for: Forest fire Level: Yellow info button
cap:instruction>

norsk:
Lokal stor gress-, lyng- og skogbrannfare inntil det kommer nedbør av betydning.

Vegetasjon kan lett antennes og store områder kan bli berørt. Vær forsiktig med åpen ild. Følg lokale myndigheters instruksjoner.<

Nearby METAR Reports

  
ENBR - Bergen/Flesland, Norway
Distance from station: E 6km
Updated: 22-07-2018 18:20
Drizzle, Mist, Mostly Cloudy
Drizzle, Mist, Mostly Cloudy  
 Wind from S
Wind: S 19 km/h
Temperature:  14°C
Dew Point:  13°C
Humidity:  94%
Barometer:  1010 hPa
Summary:  Drizzle, Mist
Clouds:  Mostly Cloudy
Visibility:  5 km
Cloud details:  Partly Cloudy 152 m
Mostly Cloudy 244 m
2018/07/22 16:20 ENBR 221620Z 19010KT 4500 DZ BR SCT005 BKN008 14/13 Q1010 TEMPO 2500 DZRA BR BKN004 RMK WIND 1200FT 16016KT
ENSO - Stord/Soerstokke, Norway
Distance from station: SSE 56km
Updated: 22-07-2018 18:20
Light drizzle, Mostly Cloudy
Light drizzle, Mostly Cloudy  
 Wind from SSW
Wind: SSW 11 km/h
Temperature:  16°C
Dew Point:  13°C
Humidity:  83%
Barometer:  1011 hPa
Summary:  Light Drizzle
Clouds:  Mostly Cloudy
Visibility:  9 km
Cloud details:  Few Clouds 457 m
Partly Cloudy 549 m
Mostly Cloudy 671 m
2018/07/22 16:20 ENSO 221620Z 21006KT 9000 -DZ FEW015 SCT018 BKN022 16/13 Q1011
ENQA - Troll-A Heli, Norway
Distance from station: WNW 87km
Updated: 22-07-2018 18:20
Light Rain Showers, Overcast
Light Rain Showers, Overcast  
 Wind from WSW
Wind: WSW 31 km/h
Temperature:  14°C
Dew Point:  12°C
Humidity:  88%
Barometer:  1009 hPa
Summary:  Light Rain Showers
Clouds:  Overcast
Visibility:  16 miles
Cloud details:  Overcast 396 m
2018/07/22 16:20 ENQA 221620Z AUTO 24017KT 9999NDV -SHRA OVC013/// 14/12 Q1009 W14/S4
ENHD - Haugesund/Karmoy, Norway
Distance from station: S 103km
Updated: 22-07-2018 18:20
Mostly Cloudy
Mostly Cloudy  
 Wind from SE
Wind: SE 11 km/h
Temperature:  17°C
Dew Point:  12°C
Humidity:  73%
Barometer:  1011 hPa
Clouds:  Mostly Cloudy
Visibility:  10 km
Cloud details:  Few Clouds 213 m
Partly Cloudy 366 m
Mostly Cloudy 488 m
2018/07/22 16:20 ENHD 221620Z 14006KT 110V200 9999 FEW007 SCT012 BKN016 17/12 Q1011
ENQC - Troll-C Heli, Norway
Distance from station: NW 106km
Updated: 22-07-2018 18:20
Overcast
Overcast  
 Wind from SW
Wind: SW 24 km/h
Temperature:  14°C
Dew Point:  13°C
Humidity:  94%
Barometer:  1008 hPa
Clouds:  Overcast
Visibility:  16 miles
Cloud details:  Few Clouds 305 m
Overcast 732 m
2018/07/22 16:20 ENQC 221620Z AUTO 23013KT 9999NDV FEW010/// OVC024/// 14/13 Q1008 W///S4
ENOA - Oseberg, Norway
Distance from station: WNW 128km
Updated: 22-07-2018 18:20
Mostly Cloudy
Mostly Cloudy  
 Wind from W
Wind: W 30 km/h
Temperature:  15°C
Dew Point:  12°C
Humidity:  82%
Barometer:  1009 hPa
Clouds:  Mostly Cloudy
Visibility:  10 km
Cloud details:  Mostly Cloudy 366 m
2018/07/22 16:20 ENOA 221620Z 26016KT 9999 BKN012 15/12 Q1009 W///S4
ENBL - Forde/Bringeland, Norway
Distance from station: NNE 130km
Updated: 22-07-2018 18:20
Nearby showers, Mostly Cloudy
Nearby showers, Mostly Cloudy  
 Wind from SW
Wind: SW 11 km/h
Temperature:  15°C
Dew Point:  11°C
Humidity:  77%
Barometer:  1009 hPa
Summary:  Nearby Showers
Clouds:  Mostly Cloudy
Visibility:  10 km
Cloud details:  Partly Cloudy 610 m
Mostly Cloudy 853 m
2018/07/22 16:20 ENBL 221620Z 22006KT 9999 VCSH SCT020 BKN028 15/11 Q1009
ENFL - Floro, Norway
Distance from station: N 144km
Updated: 22-07-2018 18:20
Light rain drizzle, Mostly Cloudy
Light rain drizzle, Mostly Cloudy  
 Wind from S
Wind: S 24 km/h
Temperature:  15°C
Dew Point:  13°C
Humidity:  88%
Barometer:  1008 hPa
Summary:  Light Rain Drizzle
Clouds:  Mostly Cloudy
Visibility:  10 km
Cloud details:  Few Clouds 152 m
Partly Cloudy 305 m
Mostly Cloudy 457 m
2018/07/22 16:20 ENFL 221620Z 17013KT 9999 -RADZ FEW005 SCT010 BKN015 15/13 Q1008
ENSG - Sogndal/Haukasen, Norway
Distance from station: NE 145km
Updated: 22-07-2018 17:50
Mostly Cloudy
Mostly Cloudy  
 Wind from W
Wind: W 15 km/h
Temperature:  19°C
Dew Point:  10°C
Humidity:  56%
Barometer:  1009 hPa
Clouds:  Mostly Cloudy
Visibility:  10 km
Cloud details:  Mostly Cloudy 1463 m
2018/07/22 15:50 ENSG 221550Z 26008KT 9999 BKN048 19/10 Q1009 RMK WIND 3806FT 26009KT
ENZV - Stavanger/Sola(A, Norway
Distance from station: S 159km
Updated: 22-07-2018 18:20
Mostly Cloudy
Mostly Cloudy  
 Wind from S
Wind: S 6 km/h
Temperature:  19°C
Dew Point:  12°C
Humidity:  64%
Barometer:  1011 hPa
Clouds:  Mostly Cloudy
Visibility:  10 km
Cloud details:  Mostly Cloudy 549 m
2018/07/22 16:20 ENZV 221620Z 18003KT 130V220 9999 BKN018 19/12 Q1011 BECMG BKN012
ENHM - Heimdal Oilp, Norway
Distance from station: WSW 179km
Updated: 22-07-2018 18:20
Mostly Cloudy
Mostly Cloudy  
 Wind from W
Wind: W 30 km/h
Temperature:  14°C
Dew Point:  12°C
Humidity:  88%
Barometer:  1010 hPa
Clouds:  Mostly Cloudy
Visibility:  10 km
Cloud details:  Mostly Cloudy 610 m
2018/07/22 16:20 ENHM 221620Z 27016KT 9999 BKN020 14/12 Q1010 W16/S3
ENSD - Sandane/Anda, Norway
Distance from station: NNE 180km
Updated: 22-07-2018 18:20
Mostly Cloudy
Mostly Cloudy  
 Wind from S
Wind: S 15 km/h
Temperature:  19°C
Dew Point:  11°C
Humidity:  60%
Barometer:  1007 hPa
Clouds:  Mostly Cloudy
Visibility:  10 km
Cloud details:  Few Clouds 1036 m
Mostly Cloudy 1524 m
2018/07/22 16:20 ENSD 221620Z 18008KT 150V250 9999 FEW034 BKN050 19/11 Q1007 RMK WIND 1138FT VRB05KT

Script developed by  Saratoga-weather.org Adapted for the template by  Weerstation Leuven